Time;durP1;ratioP1;P1;durP2;ratioP2;P2;SDS_P1;SDS_P2;PMS_P1;PMS_P2;Temp;Humidity;BMP_temperature;BMP_pressure;BME280_temperature;BME280_humidity;BME280_pressure;Samples;Min_cycle;Max_cycle;Signal;HPM_P1;HPM_P2
2023/06/13 00:00:51;;;;;;;10.57;5.47;;;21.00;99.90;;;;;;5077742;28;20117;-52
2023/06/13 00:03:19;;;;;;;13.18;6.25;;;21.00;99.90;;;;;;5073401;28;20194;-53
2023/06/13 00:05:46;;;;;;;11.18;6.50;;;20.90;99.90;;;;;;5072180;28;20045;-53
2023/06/13 00:08:21;;;;;;;11.32;7.57;;;20.90;99.90;;;;;;5074133;28;20040;-54
2023/06/13 00:10:47;;;;;;;13.55;6.45;;;20.90;99.90;;;;;;5075470;28;20057;-54
2023/06/13 00:13:15;;;;;;;9.90;6.72;;;20.80;99.90;;;;;;5077696;28;20079;-51
2023/06/13 00:15:51;;;;;;;16.35;6.68;;;20.80;99.90;;;;;;5077037;28;20048;-51
2023/06/13 00:18:19;;;;;;;9.30;6.70;;;20.80;99.90;;;;;;5076524;28;20039;-51
2023/06/13 00:20:45;;;;;;;9.10;6.15;;;20.80;99.90;;;;;;5075230;28;20530;-51
2023/06/13 00:23:12;;;;;;;11.15;6.43;;;20.80;99.90;;;;;;5076883;28;20044;-51
2023/06/13 00:25:38;;;;;;;11.13;7.13;;;20.80;99.90;;;;;;5068677;28;20068;-51
2023/06/13 00:28:04;;;;;;;17.80;6.85;;;20.80;99.90;;;;;;5076810;28;20086;-51
2023/06/13 00:30:30;;;;;;;10.55;6.60;;;20.70;99.90;;;;;;5076695;28;20045;-51
2023/06/13 00:32:56;;;;;;;12.73;5.80;;;20.70;99.90;;;;;;5076749;28;20044;-51
2023/06/13 00:35:22;;;;;;;9.25;6.15;;;20.70;99.90;;;;;;5075173;28;20518;-51
2023/06/13 00:37:54;;;;;;;9.48;6.32;;;20.60;99.90;;;;;;5076570;28;20123;-53
2023/06/13 00:40:20;;;;;;;;;;;20.50;99.90;;;;;;5077063;28;20532;-53
2023/06/13 00:42:46;;;;;;;13.55;5.15;;;20.60;99.90;;;;;;5076325;28;20016;-51
2023/06/13 00:45:31;;;;;;;13.55;7.07;;;20.50;99.90;;;;;;5077257;28;20902;-51
2023/06/13 00:48:03;;;;;;;7.40;5.25;;;20.50;99.90;;;;;;5075320;28;20049;-51
2023/06/13 00:50:44;;;;;;;12.93;7.30;;;20.50;99.90;;;;;;5075668;28;20044;-51
2023/06/13 00:53:16;;;;;;;9.88;5.68;;;20.40;99.90;;;;;;5075893;28;20471;-51
2023/06/13 00:55:42;;;;;;;12.75;5.53;;;20.40;99.90;;;;;;5077425;28;20075;-51
2023/06/13 00:58:10;;;;;;;9.40;6.10;;;20.30;99.90;;;;;;5072734;28;20113;-51
2023/06/13 01:00:39;;;;;;;12.60;6.28;;;20.30;99.90;;;;;;5076117;28;20614;-52
2023/06/13 01:03:15;;;;;;;14.57;6.72;;;20.30;99.90;;;;;;5076710;28;20037;-51
2023/06/13 01:05:45;;;;;;;13.18;7.03;;;20.30;99.90;;;;;;5075698;28;20402;-51
2023/06/13 01:08:21;;;;;;;12.00;7.32;;;20.30;99.90;;;;;;5076403;28;20041;-51
2023/06/13 01:11:13;;;;;;;13.20;7.28;;;20.30;99.90;;;;;;5075138;28;20120;-54
2023/06/13 01:13:47;;;;;;;17.23;6.80;;;20.30;99.90;;;;;;5076045;28;20795;-52
2023/06/13 01:16:45;;;;;;;15.32;7.43;;;20.30;99.90;;;;;;5074967;28;20050;-52
2023/06/13 01:19:38;;;;;;;11.05;5.65;;;20.30;99.90;;;;;;5069116;28;20588;-52
2023/06/13 01:22:10;;;;;;;12.43;7.82;;;20.20;99.90;;;;;;5073942;28;20036;-55
2023/06/13 01:24:45;;;;;;;10.75;6.85;;;20.20;99.90;;;;;;5077365;28;20056;-53
2023/06/13 01:27:14;;;;;;;15.27;7.45;;;20.20;99.90;;;;;;5072225;28;20060;-52
2023/06/13 01:29:42;;;;;;;14.95;7.43;;;20.20;99.90;;;;;;5074787;28;20806;-52
2023/06/13 01:32:09;;;;;;;13.25;8.27;;;20.20;99.90;;;;;;5075166;28;20131;-52
2023/06/13 01:34:35;;;;;;;17.52;7.43;;;20.20;99.90;;;;;;5074989;28;20075;-54
2023/06/13 01:37:01;;;;;;;11.40;6.70;;;20.10;99.90;;;;;;5074301;28;20123;-52
2023/06/13 01:39:27;;;;;;;12.13;6.80;;;20.10;99.90;;;;;;5076459;28;20036;-52
2023/06/13 01:41:52;;;;;;;14.20;7.70;;;20.10;99.90;;;;;;5076069;28;20041;-53
2023/06/13 01:44:20;;;;;;;15.13;5.93;;;20.10;99.90;;;;;;5076040;28;20048;-52
2023/06/13 01:47:01;;;;;;;14.48;7.93;;;20.00;99.90;;;;;;5075145;28;20102;-53
2023/06/13 01:49:42;;;;;;;16.55;8.35;;;20.00;99.90;;;;;;5088619;27;20044;-54
2023/06/13 01:52:26;;;;;;;15.10;7.65;;;20.10;99.90;;;;;;5076010;27;20044;-53
2023/06/13 01:55:02;;;;;;;15.57;7.63;;;20.00;99.90;;;;;;5091032;27;20587;-53
2023/06/13 01:57:39;;;;;;;24.58;8.02;;;20.00;99.90;;;;;;5075212;28;20109;-52
2023/06/13 02:00:09;;;;;;;10.13;6.63;;;20.00;99.90;;;;;;5054349;28;20052;-53
2023/06/13 02:02:35;;;;;;;12.43;8.02;;;19.90;99.90;;;;;;5076708;28;20547;-53
2023/06/13 02:05:01;;;;;;;15.27;8.48;;;19.80;99.90;;;;;;5074976;28;20934;-53
2023/06/13 02:07:28;;;;;;;12.65;6.68;;;19.70;99.90;;;;;;5075784;28;20045;-53
2023/06/13 02:09:54;;;;;;;13.35;8.50;;;19.70;99.90;;;;;;5073753;28;20047;-52
2023/06/13 02:12:20;;;;;;;12.95;8.43;;;19.70;99.90;;;;;;5075144;28;20036;-53
2023/06/13 02:14:46;;;;;;;14.40;7.15;;;19.70;99.90;;;;;;5090666;27;20051;-53
2023/06/13 02:17:12;;;;;;;8.02;4.57;;;19.60;99.90;;;;;;5074371;28;20048;-51
2023/06/13 02:19:38;;;;;;;11.98;6.07;;;19.60;99.90;;;;;;5074450;28;20041;-51
2023/06/13 02:22:05;;;;;;;10.65;5.97;;;19.60;99.90;;;;;;5075243;28;20440;-51
2023/06/13 02:24:30;;;;;;;17.13;7.28;;;19.50;99.90;;;;;;5072932;28;20056;-51
2023/06/13 02:26:56;;;;;;;11.80;7.18;;;19.40;99.90;;;;;;5075281;28;20041;-51
2023/06/13 02:29:22;;;;;;;18.08;6.47;;;19.40;99.90;;;;;;5074218;28;20044;-51
2023/06/13 02:31:47;;;;;;;12.38;7.53;;;19.40;99.90;;;;;;5074085;28;20040;-51
2023/06/13 02:34:13;;;;;;;10.00;6.30;;;19.40;99.90;;;;;;5074063;28;20047;-51
2023/06/13 02:36:39;;;;;;;16.73;8.57;;;19.40;99.90;;;;;;5070607;27;20041;-51
2023/06/13 02:39:07;;;;;;;18.35;9.23;;;19.30;99.90;;;;;;5075200;28;20534;-51
2023/06/13 02:41:33;;;;;;;18.63;5.30;;;19.30;99.90;;;;;;5084611;27;20037;-53
2023/06/13 02:43:59;;;;;;;13.43;6.72;;;19.30;99.90;;;;;;5073838;28;20531;-53
2023/06/13 02:46:24;;;;;;;17.65;7.38;;;19.30;99.90;;;;;;5073826;28;20040;-53
2023/06/13 02:48:50;;;;;;;14.60;8.13;;;19.30;99.90;;;;;;5074625;28;20032;-53
2023/06/13 02:51:16;;;;;;;16.63;7.60;;;19.30;99.90;;;;;;5071629;28;20029;-53
2023/06/13 02:53:43;;;;;;;18.45;7.32;;;19.30;99.90;;;;;;5075230;28;20044;-53
2023/06/13 02:56:08;;;;;;;17.23;7.60;;;19.30;99.90;;;;;;5072715;28;20036;-53
2023/06/13 02:58:34;;;;;;;15.00;6.85;;;19.20;99.90;;;;;;5072644;28;20041;-53
2023/06/13 03:01:00;;;;;;;14.93;8.10;;;19.10;99.90;;;;;;5072212;28;20133;-53
2023/06/13 03:03:25;;;;;;;12.98;6.72;;;19.10;99.90;;;;;;5070399;28;20049;-53
2023/06/13 03:05:56;;;;;;;19.02;7.63;;;19.10;99.90;;;;;;5071663;28;20059;-53
2023/06/13 03:08:22;;;;;;;17.45;7.63;;;19.10;99.90;;;;;;5073098;28;20048;-52
2023/06/13 03:10:50;;;;;;;21.90;7.15;;;19.00;99.90;;;;;;5089040;27;20119;-51
2023/06/13 03:13:16;;;;;;;14.15;6.65;;;19.00;99.90;;;;;;5072452;28;20132;-51
2023/06/13 03:15:45;;;;;;;10.95;7.05;;;18.90;99.90;;;;;;5073292;28;20102;-51
2023/06/13 03:18:11;;;;;;;25.20;7.57;;;18.90;99.90;;;;;;5071669;28;20079;-51
2023/06/13 03:20:37;;;;;;;14.32;7.22;;;18.90;99.90;;;;;;5073046;28;20555;-51
2023/06/13 03:23:03;;;;;;;24.33;8.50;;;18.90;99.90;;;;;;5072845;28;20061;-51
2023/06/13 03:25:32;;;;;;;12.70;6.45;;;18.90;99.90;;;;;;5092270;27;20151;-51
2023/06/13 03:27:57;;;;;;;18.85;6.88;;;18.80;99.90;;;;;;5076916;28;20044;-51
2023/06/13 03:30:23;;;;;;;18.38;6.97;;;18.80;99.90;;;;;;5075161;28;20037;-51
2023/06/13 03:32:54;;;;;;;11.10;7.03;;;18.80;99.90;;;;;;5074479;28;20033;-52
2023/06/13 03:35:20;;;;;;;11.98;4.93;;;18.80;99.90;;;;;;5090016;27;20539;-52
2023/06/13 03:37:46;;;;;;;15.57;7.00;;;18.80;99.90;;;;;;5091752;27;20044;-51
2023/06/13 03:40:12;;;;;;;11.38;6.40;;;18.70;99.90;;;;;;5077670;28;20044;-51
2023/06/13 03:42:37;;;;;;;24.60;7.97;;;18.70;99.90;;;;;;5075173;28;20044;-51
2023/06/13 03:45:03;;;;;;;12.90;7.47;;;18.70;99.90;;;;;;5078655;28;20738;-51
2023/06/13 03:47:29;;;;;;;17.92;8.10;;;18.70;99.90;;;;;;5076730;28;20432;-51
2023/06/13 03:49:55;;;;;;;21.58;7.47;;;18.70;99.90;;;;;;5075509;28;20504;-52
2023/06/13 03:52:21;;;;;;;17.45;7.78;;;18.70;99.90;;;;;;5074787;28;20041;-51
2023/06/13 03:54:46;;;;;;;16.65;6.55;;;18.70;99.90;;;;;;5076714;28;20518;-51
2023/06/13 03:57:12;;;;;;;15.57;7.40;;;18.70;99.90;;;;;;5075687;28;20036;-51
2023/06/13 03:59:38;;;;;;;10.90;5.78;;;18.60;99.90;;;;;;5076206;28;20119;-51
2023/06/13 04:02:04;;;;;;;14.60;7.90;;;18.60;99.90;;;;;;5092374;27;20041;-51
2023/06/13 04:04:32;;;;;;;13.68;6.25;;;18.60;99.90;;;;;;5074140;28;20045;-51
2023/06/13 04:06:58;;;;;;;16.52;7.15;;;18.60;99.90;;;;;;5072970;28;20127;-51
2023/06/13 04:09:24;;;;;;;10.65;5.82;;;18.50;99.90;;;;;;5074345;28;20048;-52
2023/06/13 04:11:50;;;;;;;17.73;6.28;;;18.40;99.90;;;;;;5091240;27;20048;-51
2023/06/13 04:14:16;;;;;;;13.95;7.05;;;18.40;99.90;;;;;;5071434;28;20101;-51
2023/06/13 04:16:43;;;;;;;20.25;6.97;;;18.40;99.90;;;;;;5075922;28;20044;-51
2023/06/13 04:19:09;;;;;;;21.02;9.05;;;18.50;99.90;;;;;;5073705;28;20048;-51
2023/06/13 04:21:34;;;;;;;11.82;7.30;;;18.50;99.90;;;;;;5074946;28;20479;-51
2023/06/13 04:24:00;;;;;;;16.17;5.85;;;18.40;99.90;;;;;;5073670;28;20064;-51
2023/06/13 04:26:27;;;;;;;15.35;6.20;;;18.40;99.90;;;;;;5074999;28;20044;-51
2023/06/13 04:28:52;;;;;;;16.10;7.80;;;18.40;99.90;;;;;;5075703;27;20040;-52
2023/06/13 04:31:20;;;;;;;13.68;6.28;;;18.40;99.90;;;;;;5075876;28;20043;-53
2023/06/13 04:33:46;;;;;;;15.20;7.72;;;18.40;99.90;;;;;;5075544;28;20056;-52
2023/06/13 04:36:12;;;;;;;34.40;9.40;;;18.40;99.90;;;;;;5073464;28;20128;-52
2023/06/13 04:38:39;;;;;;;17.60;7.07;;;18.50;99.90;;;;;;5093340;27;20037;-52
2023/06/13 04:41:10;;;;;;;10.85;6.30;;;18.50;99.90;;;;;;5089988;27;20071;-52
2023/06/13 04:43:41;;;;;;;15.35;6.93;;;18.50;99.90;;;;;;5077048;28;20455;-52
2023/06/13 04:46:10;;;;;;;18.90;6.60;;;18.50;99.90;;;;;;5073757;28;20041;-52
2023/06/13 04:48:37;;;;;;;14.70;8.38;;;18.60;99.90;;;;;;5077494;28;20048;-53
2023/06/13 04:51:03;;;;;;;13.10;6.53;;;18.60;99.90;;;;;;5074944;28;20068;-53
2023/06/13 04:53:30;;;;;;;13.93;7.00;;;18.50;99.90;;;;;;5076561;28;20040;-53
2023/06/13 04:55:57;;;;;;;13.15;7.72;;;18.40;99.90;;;;;;5076025;28;20045;-52
2023/06/13 04:58:23;;;;;;;12.25;6.40;;;18.40;99.90;;;;;;5077877;27;20111;-52
2023/06/13 05:00:51;;;;;;;11.65;6.60;;;18.40;99.90;;;;;;5071439;28;20040;-52
2023/06/13 05:03:19;;;;;;;12.57;6.55;;;18.40;99.90;;;;;;5076510;28;20094;-52
2023/06/13 05:05:45;;;;;;;14.15;7.10;;;18.40;99.90;;;;;;5074868;28;20056;-52
2023/06/13 05:08:19;;;;;;;15.95;7.38;;;18.50;99.90;;;;;;5075804;28;20597;-52
2023/06/13 05:10:45;;;;;;;12.27;7.15;;;18.50;99.90;;;;;;5075136;28;20047;-52
2023/06/13 05:13:11;;;;;;;14.75;7.35;;;18.40;99.90;;;;;;5076081;28;20134;-53
2023/06/13 05:15:38;;;;;;;13.82;7.45;;;18.40;99.90;;;;;;5074407;28;20072;-52
2023/06/13 05:18:08;;;;;;;14.60;7.30;;;18.50;99.90;;;;;;5070888;28;20174;-52
2023/06/13 05:20:33;;;;;;;13.50;7.47;;;18.50;99.90;;;;;;5071330;27;20106;-52
2023/06/13 05:23:01;;;;;;;13.95;7.70;;;18.40;99.90;;;;;;5072191;27;20061;-51
2023/06/13 05:25:28;;;;;;;18.27;9.98;;;18.40;99.90;;;;;;5073819;27;20075;-52
2023/06/13 05:27:54;;;;;;;8.43;4.53;;;18.50;99.90;;;;;;5070327;28;20131;-52
2023/06/13 05:30:21;;;;;;;16.40;6.68;;;18.50;99.90;;;;;;5072664;28;20127;-52
2023/06/13 05:32:46;;;;;;;16.83;6.88;;;18.50;99.90;;;;;;5076603;28;20040;-52
2023/06/13 05:35:12;;;;;;;14.02;7.05;;;18.50;99.90;;;;;;5072449;28;20033;-52
2023/06/13 05:37:38;;;;;;;20.67;8.43;;;18.50;99.90;;;;;;5070603;28;20040;-52
2023/06/13 05:40:05;;;;;;;16.13;7.35;;;18.50;99.90;;;;;;5076470;28;20136;-52
2023/06/13 05:42:35;;;;;;;16.13;6.93;;;18.60;99.90;;;;;;5071301;28;20045;-52
2023/06/13 05:45:06;;;;;;;16.15;8.48;;;18.60;99.90;;;;;;5075435;28;20763;-52
2023/06/13 05:47:32;;;;;;;11.57;7.07;;;18.60;99.90;;;;;;5074550;28;20033;-52
2023/06/13 05:49:59;;;;;;;15.27;6.80;;;18.50;99.90;;;;;;5074401;28;20091;-52
2023/06/13 05:52:25;;;;;;;22.83;8.50;;;18.60;99.90;;;;;;5071349;28;20045;-52
2023/06/13 05:54:51;;;;;;;15.93;8.30;;;18.60;99.90;;;;;;5069841;28;20040;-52
2023/06/13 05:57:17;;;;;;;12.95;7.38;;;18.60;99.90;;;;;;5069583;28;21651;-51
2023/06/13 05:59:43;;;;;;;19.50;7.40;;;18.60;99.90;;;;;;5086573;27;20487;-52
2023/06/13 06:02:10;;;;;;;16.05;8.32;;;18.60;99.90;;;;;;5070915;28;20048;-52
2023/06/13 06:04:36;;;;;;;15.98;8.88;;;18.60;99.90;;;;;;5072582;28;20084;-52
2023/06/13 06:07:03;;;;;;;14.63;5.63;;;18.60;99.90;;;;;;5074478;28;20040;-52
2023/06/13 06:09:29;;;;;;;15.90;7.93;;;18.60;99.90;;;;;;5071416;28;20048;-52
2023/06/13 06:11:55;;;;;;;20.20;9.68;;;18.60;99.90;;;;;;5087547;27;20044;-52
2023/06/13 06:14:21;;;;;;;20.08;10.48;;;18.70;99.90;;;;;;5069757;28;20147;-53
2023/06/13 06:16:47;;;;;;;17.35;8.65;;;18.70;99.90;;;;;;5072750;28;20179;-52
2023/06/13 06:19:13;;;;;;;14.68;7.93;;;18.70;99.90;;;;;;5072013;28;20048;-51
2023/06/13 06:21:39;;;;;;;9.73;6.50;;;18.80;99.90;;;;;;5072513;28;20549;-52
2023/06/13 06:24:06;;;;;;;15.35;7.50;;;18.80;99.90;;;;;;5072339;27;20064;-52
2023/06/13 06:26:32;;;;;;;12.85;8.38;;;18.80;99.90;;;;;;5073564;28;20037;-52
2023/06/13 06:29:00;;;;;;;11.88;7.65;;;18.80;99.90;;;;;;5073518;28;20516;-52
2023/06/13 06:31:27;;;;;;;13.43;8.48;;;18.90;99.90;;;;;;5067869;28;20090;-51
2023/06/13 06:33:53;;;;;;;15.57;8.90;;;18.90;99.90;;;;;;5068383;28;20561;-52
2023/06/13 06:36:22;;;;;;;12.98;7.78;;;18.90;99.90;;;;;;5071352;28;20056;-52
2023/06/13 06:38:47;;;;;;;15.23;9.27;;;19.00;99.90;;;;;;5072345;28;20083;-51
2023/06/13 06:41:13;;;;;;;11.95;6.93;;;19.00;99.90;;;;;;5070039;28;20463;-52
2023/06/13 06:43:39;;;;;;;15.40;9.23;;;19.00;99.90;;;;;;5072659;28;20059;-52
2023/06/13 06:46:05;;;;;;;18.05;9.32;;;19.10;99.90;;;;;;5071400;28;20056;-52
2023/06/13 06:48:30;;;;;;;13.05;8.68;;;19.10;99.90;;;;;;5070693;28;20046;-52
2023/06/13 06:50:56;;;;;;;18.75;9.40;;;19.10;99.90;;;;;;5072497;28;20047;-52
2023/06/13 06:53:22;;;;;;;13.18;8.75;;;19.10;99.90;;;;;;5070225;28;20053;-52
2023/06/13 06:55:47;;;;;;;12.27;9.13;;;19.20;99.90;;;;;;5071945;28;20542;-52
2023/06/13 06:58:13;;;;;;;16.40;9.20;;;19.20;99.90;;;;;;5067121;28;20587;-52
2023/06/13 07:00:39;;;;;;;13.65;8.98;;;19.30;99.90;;;;;;5070639;28;20049;-52
2023/06/13 07:03:07;;;;;;;13.18;8.30;;;19.30;99.90;;;;;;5073760;28;20055;-52
2023/06/13 07:05:33;;;;;;;17.65;8.05;;;19.30;99.90;;;;;;5076140;28;20743;-52
2023/06/13 07:07:59;;;;;;;16.77;7.93;;;19.40;99.90;;;;;;5076829;28;20145;-51
2023/06/13 07:10:26;;;;;;;12.65;8.77;;;19.40;99.90;;;;;;5077972;28;20068;-52
2023/06/13 07:12:52;;;;;;;13.48;8.07;;;19.40;99.90;;;;;;5076520;28;20100;-52
2023/06/13 07:15:17;;;;;;;14.23;8.68;;;19.40;99.90;;;;;;5076621;28;20507;-52
2023/06/13 07:17:43;;;;;;;15.95;8.88;;;19.50;99.90;;;;;;5078650;28;20170;-52
2023/06/13 07:20:11;;;;;;;15.00;9.02;;;19.50;99.90;;;;;;5078512;28;20044;-52
2023/06/13 07:22:36;;;;;;;13.48;9.38;;;19.50;99.90;;;;;;5074694;28;20055;-52
2023/06/13 07:25:03;;;;;;;12.15;8.77;;;19.60;99.90;;;;;;5079369;28;20045;-52
2023/06/13 07:27:29;;;;;;;11.85;8.52;;;19.60;99.90;;;;;;5079073;28;20044;-52
2023/06/13 07:29:55;;;;;;;14.38;9.00;;;19.60;99.90;;;;;;5094705;27;20041;-52
2023/06/13 07:32:21;;;;;;;11.38;7.60;;;19.70;99.90;;;;;;5080370;28;20041;-52
2023/06/13 07:34:47;;;;;;;22.58;10.23;;;19.70;99.90;;;;;;5093150;27;20052;-52
2023/06/13 07:37:12;;;;;;;17.63;9.60;;;19.70;99.90;;;;;;5078426;28;20041;-52
2023/06/13 07:39:38;;;;;;;15.45;7.82;;;19.80;99.90;;;;;;5077508;28;20102;-52
2023/06/13 07:44:51;;;;;;;17.45;8.25;;;19.90;99.90;;;;;;5078869;28;20071;-51
2023/06/13 07:47:17;;;;;;;13.15;8.02;;;20.00;99.90;;;;;;5077297;28;20048;-52
2023/06/13 07:49:42;;;;;;;16.10;8.48;;;20.00;99.90;;;;;;5079534;28;20072;-52
2023/06/13 07:52:08;;;;;;;14.13;8.30;;;20.00;99.90;;;;;;5078334;28;20044;-52
2023/06/13 07:54:34;;;;;;;11.57;7.70;;;20.00;99.90;;;;;;5094485;27;20547;-52
2023/06/13 07:57:00;;;;;;;11.35;6.85;;;20.10;99.90;;;;;;5079533;28;20423;-52
2023/06/13 07:59:26;;;;;;;13.50;6.82;;;20.10;99.90;;;;;;5077115;28;20067;-52
2023/06/13 08:01:52;;;;;;;9.73;5.55;;;20.20;99.90;;;;;;5078544;28;20056;-52
2023/06/13 08:04:18;;;;;;;10.70;7.25;;;20.30;99.90;;;;;;5078551;28;20040;-52
2023/06/13 08:06:43;;;;;;;11.73;7.45;;;20.20;99.90;;;;;;5080279;28;20110;-52
2023/06/13 08:09:11;;;;;;;12.00;6.40;;;20.30;99.90;;;;;;5077772;28;20137;-52
2023/06/13 08:11:37;;;;;;;9.43;5.72;;;20.30;99.90;;;;;;5078718;28;20121;-52
2023/06/13 08:14:03;;;;;;;8.55;6.25;;;20.40;99.90;;;;;;5079066;28;20060;-52
2023/06/13 08:16:29;;;;;;;9.65;6.32;;;20.40;99.90;;;;;;5078449;28;20602;-52
2023/06/13 08:18:55;;;;;;;11.55;6.75;;;20.50;99.90;;;;;;5076733;28;20044;-52
2023/06/13 08:21:21;;;;;;;12.23;6.40;;;20.50;99.90;;;;;;5077751;28;20512;-52
2023/06/13 08:23:47;;;;;;;11.27;6.78;;;20.80;99.90;;;;;;5078082;28;20827;-51
2023/06/13 08:26:13;;;;;;;13.32;6.65;;;20.60;99.90;;;;;;5078251;28;20086;-52
2023/06/13 08:28:38;;;;;;;10.27;6.43;;;20.70;99.90;;;;;;5078860;28;20516;-52
2023/06/13 08:31:05;;;;;;;10.82;5.90;;;20.70;99.90;;;;;;5078199;28;20045;-52
2023/06/13 08:33:31;;;;;;;8.38;5.15;;;20.70;99.90;;;;;;5077601;28;20194;-52
2023/06/13 08:35:57;;;;;;;11.25;6.85;;;20.80;99.90;;;;;;5077101;28;20044;-52
2023/06/13 08:38:24;;;;;;;9.18;5.20;;;20.80;99.90;;;;;;5077535;28;20147;-52
2023/06/13 08:40:50;;;;;;;13.52;5.43;;;20.90;99.90;;;;;;5078531;28;20068;-52
2023/06/13 08:43:16;;;;;;;14.05;7.15;;;21.00;99.90;;;;;;5076294;28;20559;-52
2023/06/13 08:45:41;;;;;;;7.57;5.60;;;21.00;99.90;;;;;;5076845;28;20037;-52
2023/06/13 08:48:07;;;;;;;8.98;6.20;;;21.10;99.90;;;;;;5078432;28;20126;-52
2023/06/13 08:50:33;;;;;;;9.13;5.78;;;21.10;99.90;;;;;;5076585;28;20142;-52
2023/06/13 08:53:01;;;;;;;8.85;4.90;;;21.20;99.90;;;;;;5092611;27;20033;-52
2023/06/13 08:55:28;;;;;;;7.18;5.35;;;21.20;99.90;;;;;;5078311;28;20049;-52
2023/06/13 08:57:54;;;;;;;8.00;5.55;;;21.30;99.90;;;;;;5069961;28;20056;-52
2023/06/13 09:00:24;;;;;;;8.65;5.68;;;21.30;99.90;;;;;;5078022;28;20041;-52
2023/06/13 09:02:52;;;;;;;11.85;5.95;;;21.40;99.90;;;;;;5075795;28;20041;-53
2023/06/13 09:05:18;;;;;;;10.35;5.30;;;21.50;99.90;;;;;;5074504;28;20566;-52
2023/06/13 09:07:46;;;;;;;12.32;7.35;;;21.50;99.90;;;;;;5078170;28;20653;-52
2023/06/13 09:10:12;;;;;;;11.50;5.55;;;21.50;99.90;;;;;;5075693;28;20332;-52
2023/06/13 09:12:46;;;;;;;9.43;6.10;;;21.60;99.90;;;;;;5077724;28;20045;-52
2023/06/13 09:15:11;;;;;;;12.55;4.68;;;21.60;99.90;;;;;;5077476;28;20051;-52
2023/06/13 09:17:37;;;;;;;6.28;4.47;;;21.60;99.90;;;;;;5077503;28;20063;-52
2023/06/13 09:20:07;;;;;;;9.77;4.72;;;21.70;99.90;;;;;;5076356;28;20615;-52
2023/06/13 09:22:36;;;;;;;6.90;5.05;;;21.80;99.90;;;;;;5077358;28;20044;-52
2023/06/13 09:25:04;;;;;;;8.18;4.80;;;21.90;99.90;;;;;;5076776;28;20060;-52
2023/06/13 09:27:30;;;;;;;9.65;5.43;;;21.90;99.90;;;;;;5077795;28;20084;-52
2023/06/13 09:30:00;;;;;;;12.80;5.70;;;21.90;99.90;;;;;;5078032;28;20044;-52
2023/06/13 09:32:26;;;;;;;7.78;5.43;;;22.00;99.90;;;;;;5076769;28;20828;-52
2023/06/13 09:34:52;;;;;;;7.20;4.95;;;22.00;99.90;;;;;;5093434;27;20902;-52
2023/06/13 09:37:18;;;;;;;9.60;4.80;;;22.10;99.90;;;;;;5077514;28;20041;-52
2023/06/13 09:39:50;;;;;;;19.25;7.68;;;22.20;99.90;;;;;;5076931;28;20901;-53
2023/06/13 09:42:23;;;;;;;6.88;4.38;;;22.20;99.90;;;;;;5076432;28;20036;-52
2023/06/13 09:44:50;;;;;;;8.50;5.00;;;22.20;99.90;;;;;;5077129;28;20051;-52
2023/06/13 09:47:23;;;;;;;8.00;5.13;;;22.30;99.90;;;;;;5076299;28;20052;-52
2023/06/13 09:49:56;;;;;;;7.32;5.30;;;22.40;99.90;;;;;;5078173;28;20048;-52
2023/06/13 09:52:26;;;;;;;7.10;4.43;;;22.40;99.90;;;;;;5077375;28;20048;-52
2023/06/13 09:54:53;;;;;;;6.53;4.55;;;22.50;99.90;;;;;;5093756;27;20582;-52
2023/06/13 09:57:20;;;;;;;8.65;6.43;;;22.50;99.90;;;;;;5076328;28;20040;-52
2023/06/13 09:59:47;;;;;;;10.70;5.85;;;22.50;99.90;;;;;;5076825;28;20044;-52
2023/06/13 10:02:16;;;;;;;6.18;4.65;;;22.60;99.90;;;;;;5075624;28;20071;-52
2023/06/13 10:04:43;;;;;;;7.97;5.35;;;22.60;99.90;;;;;;5077467;28;20040;-52
2023/06/13 10:07:13;;;;;;;8.82;5.43;;;22.70;99.90;;;;;;5076304;28;20609;-52
2023/06/13 10:09:39;;;;;;;7.65;5.05;;;22.70;99.90;;;;;;5075817;28;20036;-52
2023/06/13 10:12:11;;;;;;;9.88;5.50;;;22.80;99.90;;;;;;5077048;28;20528;-52
2023/06/13 10:14:40;;;;;;;9.95;5.28;;;22.90;99.90;;;;;;5077298;28;20037;-52
2023/06/13 10:17:11;;;;;;;8.95;5.13;;;22.90;99.90;;;;;;5074833;28;20053;-52
2023/06/13 10:19:39;;;;;;;7.85;5.47;;;23.00;99.90;;;;;;5077908;28;20060;-52
2023/06/13 10:22:07;;;;;;;4.63;3.42;;;23.00;99.90;;;;;;5076695;28;20486;-52
2023/06/13 10:24:38;;;;;;;8.85;5.70;;;23.00;99.90;;;;;;5078362;28;20048;-52
2023/06/13 10:27:06;;;;;;;8.10;5.25;;;23.10;98.90;;;;;;5075498;28;20045;-52
2023/06/13 10:30:00;;;;;;;7.38;5.38;;;23.20;98.70;;;;;;5076260;27;20041;-52
2023/06/13 10:32:29;;;;;;;8.20;5.55;;;23.30;98.00;;;;;;5076160;28;20084;-52
2023/06/13 10:35:16;;;;;;;9.82;5.95;;;23.30;97.70;;;;;;5076384;28;20040;-52
2023/06/13 10:38:05;;;;;;;11.05;5.68;;;23.40;97.20;;;;;;5092757;27;20052;-52
2023/06/13 10:40:47;;;;;;;7.65;6.55;;;23.40;96.80;;;;;;5075727;27;20505;-52
2023/06/13 10:43:25;;;;;;;8.60;5.90;;;23.40;96.20;;;;;;5077571;28;20033;-52
2023/06/13 10:45:52;;;;;;;6.18;4.47;;;23.70;95.70;;;;;;5077250;28;20040;-52
2023/06/13 10:48:31;;;;;;;9.05;5.65;;;23.60;94.20;;;;;;5076126;28;20048;-52
2023/06/13 10:50:58;;;;;;;6.97;5.68;;;23.70;93.50;;;;;;5075560;28;20131;-52
2023/06/13 10:53:34;;;;;;;7.88;5.93;;;23.70;93.20;;;;;;5075447;28;20809;-52
2023/06/13 10:56:06;;;;;;;7.68;5.57;;;23.80;92.20;;;;;;5075501;28;21118;-52
2023/06/13 10:58:34;;;;;;;9.68;5.60;;;23.80;91.80;;;;;;5077524;28;20041;-53
2023/06/13 11:01:25;;;;;;;6.82;5.07;;;23.80;91.80;;;;;;5076758;28;20730;-52
2023/06/13 11:03:51;;;;;;;7.55;6.68;;;24.00;91.40;;;;;;5074523;28;20048;-53
2023/06/13 11:06:17;;;;;;;10.48;5.53;;;24.10;90.80;;;;;;5075337;28;20211;-52
2023/06/13 11:08:43;;;;;;;7.97;6.10;;;24.20;90.70;;;;;;5073907;28;20051;-52
2023/06/13 11:11:09;;;;;;;7.93;5.82;;;24.50;90.70;;;;;;5076259;28;20041;-52
2023/06/13 11:13:36;;;;;;;10.15;6.28;;;24.80;90.20;;;;;;5077204;28;20048;-52
2023/06/13 11:16:38;;;;;;;7.90;5.47;;;25.10;86.60;;;;;;5074833;28;20056;-53
2023/06/13 11:19:21;;;;;;;7.38;5.57;;;25.20;87.30;;;;;;5075842;28;20526;-52
2023/06/13 11:22:12;;;;;;;11.40;5.75;;;25.30;86.80;;;;;;5075288;28;20551;-53
2023/06/13 11:24:39;;;;;;;11.88;5.88;;;25.40;85.70;;;;;;5075996;28;20052;-52
2023/06/13 11:27:11;;;;;;;8.07;6.07;;;25.50;84.20;;;;;;5075533;28;20048;-52
2023/06/13 11:29:38;;;;;;;9.77;5.65;;;25.30;83.80;;;;;;5074729;28;20098;-52
2023/06/13 11:32:06;;;;;;;7.25;5.43;;;25.30;84.00;;;;;;5075880;28;20589;-52
2023/06/13 11:34:33;;;;;;;8.25;5.43;;;25.20;83.60;;;;;;5076609;28;20072;-52
2023/06/13 11:37:18;;;;;;;16.60;6.35;;;25.20;84.00;;;;;;5074528;28;20052;-52
2023/06/13 11:39:53;;;;;;;9.45;5.65;;;25.20;83.40;;;;;;5075040;28;20132;-52
2023/06/13 11:42:18;;;;;;;8.88;5.57;;;25.20;83.50;;;;;;5076078;28;20063;-52
2023/06/13 11:44:44;;;;;;;9.30;5.80;;;25.30;83.50;;;;;;5075889;28;20032;-52
2023/06/13 11:47:11;;;;;;;7.82;5.28;;;25.40;82.70;;;;;;5077618;28;20045;-52
2023/06/13 11:49:37;;;;;;;6.63;5.03;;;25.50;82.40;;;;;;5079500;28;20052;-52
2023/06/13 11:52:13;;;;;;;9.30;6.13;;;25.50;81.70;;;;;;5078953;28;20532;-52
2023/06/13 11:54:41;;;;;;;7.93;5.45;;;25.50;81.00;;;;;;5079918;28;20079;-53
2023/06/13 11:57:07;;;;;;;9.10;5.32;;;25.50;81.40;;;;;;5077258;28;20138;-52
2023/06/13 11:59:33;;;;;;;8.55;5.25;;;25.30;81.20;;;;;;5079934;28;20051;-53
2023/06/13 12:01:58;;;;;;;13.63;6.05;;;25.30;80.20;;;;;;5077431;28;20071;-53
2023/06/13 12:04:26;;;;;;;11.38;6.85;;;25.30;80.00;;;;;;5080171;28;20567;-53
2023/06/13 12:06:55;;;;;;;12.52;6.32;;;25.30;80.20;;;;;;5078176;28;20123;-52
2023/06/13 12:09:21;;;;;;;7.40;5.47;;;25.30;79.60;;;;;;5078496;28;20536;-52
2023/06/13 12:11:47;;;;;;;9.52;5.85;;;25.30;78.60;;;;;;5077752;28;20302;-52
2023/06/13 12:14:13;;;;;;;13.07;6.72;;;25.40;78.90;;;;;;5095403;27;20052;-52
2023/06/13 12:16:40;;;;;;;9.10;6.03;;;25.50;77.90;;;;;;5077016;28;20167;-52
2023/06/13 12:19:09;;;;;;;13.68;7.13;;;25.40;78.30;;;;;;5077814;28;20120;-53
2023/06/13 12:21:37;;;;;;;8.07;5.95;;;25.40;78.50;;;;;;5070708;28;20516;-52
2023/06/13 12:24:06;;;;;;;9.90;6.07;;;25.40;78.90;;;;;;5079146;28;20106;-53
2023/06/13 12:26:34;;;;;;;19.48;7.50;;;25.40;79.10;;;;;;5078436;28;20045;-53
2023/06/13 12:29:11;;;;;;;13.95;7.43;;;25.50;78.50;;;;;;5077202;28;20115;-53
2023/06/13 12:31:42;;;;;;;10.10;7.22;;;25.50;77.80;;;;;;5092321;27;20044;-52
2023/06/13 12:34:26;;;;;;;6.97;5.85;;;25.50;78.10;;;;;;5079177;28;20045;-53
2023/06/13 12:36:54;;;;;;;10.45;5.97;;;25.60;78.30;;;;;;5077056;28;20514;-52
2023/06/13 12:39:21;;;;;;;7.43;5.47;;;25.80;78.30;;;;;;5078538;28;20154;-52
2023/06/13 12:41:51;;;;;;;7.25;5.18;;;25.90;77.90;;;;;;5078522;28;20064;-52
2023/06/13 12:44:19;;;;;;;10.55;5.78;;;26.00;77.70;;;;;;5091223;27;20553;-52
2023/06/13 12:46:46;;;;;;;12.52;6.65;;;26.10;77.50;;;;;;5078728;28;20593;-53
2023/06/13 12:49:14;;;;;;;12.10;6.45;;;26.20;77.00;;;;;;5078258;28;20040;-52